Terminal Aerodrome Forecast
Issued by NWS Tulsa, OK

Home | Current Version | Previous Version | Text Only | Print | Product List | Glossary On
Versions: 1 2 3 4 5 6 7 8 9 10 11 12 13 14 15 16 17 18 19 20 21 22 23
000
FTUS44 KTSA 231100
TAFFSM
TAF
KFSM 231126Z 2312/2412 03008KT 6SM BR SCT005 BKN020
     FM231500 13008KT P6SM BKN015
     FM231800 22010G20KT P6SM SCT015 BKN050
     FM240200 28015G28KT P6SM BKN050
     FM240900 27015KT P6SM SCT050=

USA.gov is the U.S. government's official web portal to all federal, state and local government web resources and services.